TFM - Tactical Decision Aid (Experimental) INFO Settings

ID: Runway Winds: METAR Board: Map:

Kclt - Charlotte-Douglas Intl

Updated at: 0840 UTC 01 Feb 2015
Latest TAF at: 0539 UTC 01 Feb 2015

TAF Board

Time0752Z01/09Z01/10Z01/11Z01/12Z01/13Z01/14Z01/15Z01/16Z01/17Z01/18Z01/19Z01/20Z01/21Z
TypeOBSPRVLPRVLPRVLPRVLPRVLPRVLPRVLPRVLPRVLPRVLPRVLPRVLPRVL
VIS10>6>6>6>6>6>6>6>6>6>6>6>6>6
CIG130100100100100100100200200200200200200200
CoverOVCBKNBKNBKNBKNBKNBKNBKNBKNBKNBKNBKNBKNBKN
FltCat--VFRVFRVFRVFRVFRVFRVFRVFRVFRVFRVFRVFRVFR
WX----------------------------
WDir170190190190190190190190190190190190190190
WSpd43333339999999
WGst----------------------------
TAF
KCLT 010539Z 0106/0206 19003KT P6SM BKN100
  FM011500 19009KT P6SM BKN200
  FM020200 18011KT 6SM -RA OVC025
  FM020400 19013KT 4SM -RA OVC015


METAR
KCLT 010752Z 17004KT 10SM FEW110 OVC130 03/M06 A3025 RMK AO2 SLP246 T00331056

TAF/METAR Board Legend

Hazard VFR MVFR IFR LIFR
Visibility (sm) >5 3≤X≤5 1≤X<3 <1
Ceiling (100 ft) >30 10≤X≤30 5≤X<10 <5
Wind Speed (kt) <10 10≤X<20 20≤X<30 ≥30
Wind Gust (kt) <15 15≤X<25 25≤X<35 ≥35
Weather No Wx Reported VCTS,-TS,-FZRA TS,FZRA +TS,+FZRA




Page loaded:  08:40 UTC  |   12:40 AM Pacific  |   01:40 AM Mountain  |   02:40 AM Central  |   03:40 AM Eastern

 

ADVISORIES

FORECASTS

FORECASTS

OBSERVATIONS

USER TOOLS

ABOUT US